Time;durP1;ratioP1;P1;durP2;ratioP2;P2;SDS_P1;SDS_P2;PMS_P1;PMS_P2;Temp;Humidity;BMP_temperature;BMP_pressure;BME280_temperature;BME280_humidity;BME280_pressure;Samples;Min_cycle;Max_cycle;Signal;HPM_P1;HPM_P2
2022/06/03 00:00:08;;;;;;;7.59;6.79;;;;;;;10.92;82.26;101708.75;171728;28;1442;-69
2022/06/03 00:00:23;;;;;;;7.86;6.94;;;;;;;10.93;82.37;101710.44;171996;28;1239;-68
2022/06/03 00:00:53;;;;;;;7.80;7.01;;;;;;;10.92;82.36;101708.75;171939;28;1222;-68
2022/06/03 00:00:58;;;;;;;7.82;7.07;;;;;;;10.95;82.33;101706.03;171942;28;1227;-69
2022/06/03 00:01:59;;;;;;;7.63;7.00;;;;;;;10.86;83.16;101706.31;171989;28;1010;-68
2022/06/03 00:02:34;;;;;;;7.57;6.79;;;;;;;10.84;82.94;101702.91;173180;28;1718;-69
2022/06/03 00:03:11;;;;;;;7.59;6.63;;;;;;;10.70;84.13;101701.53;173360;28;1224;-69
2022/06/03 00:03:31;;;;;;;7.09;6.49;;;;;;;10.79;83.24;101703.88;173269;28;1224;-68
2022/06/03 00:04:17;;;;;;;7.46;6.80;;;;;;;10.86;82.56;101707.16;173363;28;1224;-69
2022/06/03 00:04:46;;;;;;;8.45;7.16;;;;;;;10.84;82.90;101700.28;171973;28;1224;-69
2022/06/03 00:05:38;;;;;;;9.11;7.09;;;;;;;10.81;83.14;101704.69;171928;28;1919;-68
2022/06/03 00:06:17;;;;;;;7.84;6.94;;;;;;;10.65;85.20;101712.13;171940;28;2372;-68
2022/06/03 00:06:53;;;;;;;8.13;7.16;;;;;;;10.71;83.67;101708.47;171998;28;1229;-69
2022/06/03 00:07:13;;;;;;;8.81;7.43;;;;;;;10.77;83.77;101710.91;171983;28;1388;-69
2022/06/03 00:07:59;;;;;;;8.01;7.25;;;;;;;10.66;84.72;101710.34;172001;28;1219;-69
2022/06/03 00:08:44;;;;;;;7.85;7.09;;;;;;;10.68;84.46;101708.56;171258;28;1233;-69
2022/06/03 00:09:50;;;;;;;8.31;7.07;;;;;;;10.79;83.64;101709.13;171126;28;1771;-69
2022/06/03 00:10:12;;;;;;;7.72;6.93;;;;;;;10.80;83.67;101705.59;170579;29;1238;-69
2022/06/03 00:10:51;;;;;;;7.91;6.86;;;;;;;10.79;84.15;101709.13;169568;29;1513;-69
2022/06/03 00:11:37;;;;;;;7.97;7.16;;;;;;;10.81;83.63;101702.06;169825;29;1224;-67
2022/06/03 00:12:23;;;;;;;8.06;7.29;;;;;;;10.85;83.65;101704.59;171180;28;1502;-68
2022/06/03 00:12:53;;;;;;;8.04;7.21;;;;;;;10.63;84.99;101713.91;170587;29;1228;-69
2022/06/03 00:13:35;;;;;;;7.94;7.04;;;;;;;10.54;85.65;101704.59;170569;29;1250;-69
2022/06/03 00:14:14;;;;;;;7.60;6.82;;;;;;;10.69;84.33;101702.44;171722;28;1246;-68
2022/06/03 00:14:35;;;;;;;7.69;6.95;;;;;;;10.78;84.20;101707.38;171744;28;1215;-69
2022/06/03 00:15:11;;;;;;;7.94;6.94;;;;;;;10.84;83.72;101705.50;172028;28;1370;-69
2022/06/03 00:15:57;;;;;;;8.05;7.00;;;;;;;10.72;84.91;101697.13;171714;28;1225;-69
2022/06/03 00:16:18;;;;;;;7.68;6.94;;;;;;;10.77;84.23;101703.06;171985;28;1216;-69
2022/06/03 00:17:00;;;;;;;7.60;6.84;;;;;;;10.81;83.33;101704.69;171963;28;1210;-69
2022/06/03 00:17:34;;;;;;;7.68;6.85;;;;;;;10.85;83.85;101702.84;171942;28;1262;-69
2022/06/03 00:17:48;;;;;;;8.05;7.01;;;;;;;10.72;84.73;101702.34;172041;28;1240;-69
2022/06/03 00:18:02;;;;;;;7.76;7.06;;;;;;;10.63;84.46;101692.16;172013;28;1261;-69
2022/06/03 00:18:30;;;;;;;7.74;7.05;;;;;;;10.73;83.93;101708.41;172025;28;1242;-69
2022/06/03 00:19:04;;;;;;;7.46;6.86;;;;;;;10.81;83.62;101702.06;172002;28;1225;-69
2022/06/03 00:19:40;;;;;;;7.54;6.81;;;;;;;10.87;83.66;101700.16;172005;28;1398;-69
2022/06/03 00:20:02;;;;;;;7.76;7.00;;;;;;;10.77;84.03;101697.84;171997;28;1221;-69
2022/06/03 00:20:34;;;;;;;7.96;6.96;;;;;;;10.68;84.63;101705.97;171987;28;1222;-69
2022/06/03 00:21:05;;;;;;;8.02;6.89;;;;;;;10.76;84.21;101703.97;172013;28;1242;-69
2022/06/03 00:21:29;;;;;;;7.81;6.93;;;;;;;10.82;83.90;101708.16;171999;28;1245;-69
2022/06/03 00:21:42;;;;;;;7.93;7.13;;;;;;;10.78;84.08;101707.38;172019;28;1212;-69
2022/06/03 00:22:02;;;;;;;7.64;6.94;;;;;;;10.80;83.61;101708.22;172016;28;1209;-69
2022/06/03 00:22:23;;;;;;;7.66;6.95;;;;;;;10.85;83.41;101704.59;171980;28;1234;-69
2022/06/03 00:23:03;;;;;;;7.61;6.99;;;;;;;10.81;83.82;101704.69;172006;28;1200;-69
2022/06/03 00:23:51;;;;;;;7.81;7.09;;;;;;;10.72;84.41;101702.34;172002;28;1225;-69
2022/06/03 00:24:26;;;;;;;7.94;7.14;;;;;;;10.73;84.57;101698.84;171967;28;1241;-69
2022/06/03 00:25:00;;;;;;;7.80;7.07;;;;;;;10.80;84.27;101700.38;172493;28;1550;-69
2022/06/03 00:25:30;;;;;;;7.84;7.15;;;;;;;10.85;83.55;101707.22;172610;28;1241;-69
2022/06/03 00:25:35;;;;;;;8.04;6.91;;;;;;;10.86;83.38;101703.69;172551;28;1233;-69
2022/06/03 00:26:09;;;;;;;7.18;6.53;;;;;;;10.87;83.85;101705.41;172655;28;1010;-68
2022/06/03 00:26:41;;;;;;;7.54;6.80;;;;;;;10.85;83.51;101707.22;172606;28;1238;-68
2022/06/03 00:27:05;;;;;;;7.76;7.05;;;;;;;10.88;83.77;101707.13;171204;28;1229;-67
2022/06/03 00:27:35;;;;;;;7.57;6.88;;;;;;;10.72;84.05;101701.50;171129;28;1497;-67
2022/06/03 00:28:05;;;;;;;7.65;6.95;;;;;;;10.84;83.14;101708.13;171213;28;1232;-69
2022/06/03 00:28:43;;;;;;;7.53;6.86;;;;;;;10.85;83.54;101705.47;171960;28;1224;-69
2022/06/03 00:29:22;;;;;;;7.47;6.74;;;;;;;10.87;83.36;101705.41;171217;28;1233;-69
2022/06/03 00:29:57;;;;;;;7.49;6.79;;;;;;;10.77;83.50;101710.91;171928;28;1199;-68
2022/06/03 00:30:40;;;;;;;7.75;7.01;;;;;;;10.86;82.96;101703.69;171909;28;1231;-68
2022/06/03 00:31:09;;;;;;;8.04;7.07;;;;;;;10.82;83.56;101709.00;171196;28;1219;-69
2022/06/03 00:31:46;;;;;;;8.64;6.99;;;;;;;10.72;84.51;101702.34;171932;28;1219;-69
2022/06/03 00:32:09;;;;;;;7.84;7.07;;;;;;;10.79;84.03;101703.88;171902;28;1227;-67
2022/06/03 00:32:32;;;;;;;7.82;6.99;;;;;;;10.60;84.60;101702.72;172006;28;1216;-67
2022/06/03 00:33:34;;;;;;;7.54;6.81;;;;;;;10.76;83.98;101703.09;171984;28;1249;-69
2022/06/03 00:34:26;;;;;;;7.31;6.68;;;;;;;10.81;83.21;101702.06;171945;28;1223;-67
2022/06/03 00:35:14;;;;;;;7.46;6.76;;;;;;;10.84;83.67;101700.28;171943;28;1225;-67
2022/06/03 00:36:12;;;;;;;7.60;6.82;;;;;;;10.84;83.83;101700.28;172523;28;1545;-67
2022/06/03 00:36:40;;;;;;;7.71;7.00;;;;;;;10.85;83.48;101702.00;172605;28;1229;-67
2022/06/03 00:37:03;;;;;;;7.51;6.85;;;;;;;10.85;83.11;101700.25;172614;28;1234;-67
2022/06/03 00:37:34;;;;;;;7.49;6.79;;;;;;;10.86;83.35;101695.84;172590;28;1210;-67
2022/06/03 00:38:20;;;;;;;8.15;6.84;;;;;;;10.81;82.86;101696.84;171952;28;1229;-67
2022/06/03 00:38:31;;;;;;;7.93;6.89;;;;;;;10.82;83.50;101701.16;171970;28;1242;-69
2022/06/03 00:39:23;;;;;;;7.81;7.07;;;;;;;10.85;82.96;101704.59;172005;28;1234;-69
2022/06/03 00:39:55;;;;;;;7.80;6.95;;;;;;;10.81;83.63;101699.47;171140;28;1237;-69
2022/06/03 00:40:25;;;;;;;7.84;7.06;;;;;;;10.80;83.38;101700.38;171917;28;1217;-69
2022/06/03 00:41:25;;;;;;;7.78;7.07;;;;;;;10.82;82.92;101698.56;171896;28;1211;-67
2022/06/03 00:42:02;;;;;;;7.78;7.06;;;;;;;10.77;83.57;101697.84;171769;28;1517;-69
2022/06/03 00:42:43;;;;;;;7.96;7.15;;;;;;;10.79;83.41;101698.66;171177;28;1220;-68
2022/06/03 00:43:14;;;;;;;8.81;7.11;;;;;;;10.78;83.35;101696.09;171198;28;1221;-67
2022/06/03 00:43:50;;;;;;;7.66;6.93;;;;;;;10.70;84.55;101698.91;171191;28;1225;-68
2022/06/03 00:44:49;;;;;;;7.78;7.05;;;;;;;10.76;83.80;101701.38;171209;28;1223;-68
2022/06/03 00:45:48;;;;;;;7.72;7.06;;;;;;;10.72;83.77;101702.34;172505;28;1501;-68
2022/06/03 00:45:56;;;;;;;8.15;7.39;;;;;;;10.64;84.32;101697.34;172621;28;1229;-67
2022/06/03 00:46:36;;;;;;;7.90;7.00;;;;;;;10.61;85.12;101704.41;172630;28;950;-67
2022/06/03 00:47:32;;;;;;;8.07;7.11;;;;;;;10.69;84.11;101705.06;172591;28;1230;-67
2022/06/03 00:48:15;;;;;;;8.06;7.21;;;;;;;10.75;83.73;101696.19;171999;28;1223;-68
2022/06/03 00:48:32;;;;;;;7.93;6.99;;;;;;;10.74;84.05;101700.53;172379;28;1540;-67
2022/06/03 00:48:52;;;;;;;7.90;7.10;;;;;;;10.73;83.91;101693.63;172597;28;1221;-67
2022/06/03 00:49:00;;;;;;;7.70;7.00;;;;;;;10.73;83.84;101701.44;172585;28;1218;-67
2022/06/03 00:49:41;;;;;;;7.59;6.99;;;;;;;10.73;84.26;101700.59;172609;28;1052;-68
2022/06/03 00:50:07;;;;;;;7.70;7.01;;;;;;;10.75;84.49;101702.28;172622;28;1242;-68
2022/06/03 00:50:43;;;;;;;7.95;7.15;;;;;;;10.74;84.13;101699.72;172586;28;1232;-67
2022/06/03 00:51:18;;;;;;;7.64;6.94;;;;;;;10.64;84.75;101696.50;171865;28;1428;-69
2022/06/03 00:51:39;;;;;;;8.27;6.93;;;;;;;10.68;84.64;101698.13;171904;28;1208;-67
2022/06/03 00:52:31;;;;;;;9.18;7.21;;;;;;;10.71;84.54;101700.63;171997;28;1222;-67
2022/06/03 00:53:11;;;;;;;7.85;7.16;;;;;;;10.72;84.28;101702.34;171922;28;1394;-68
2022/06/03 00:53:19;;;;;;;7.61;6.90;;;;;;;10.73;83.63;101701.44;171971;28;1257;-67
2022/06/03 00:54:02;;;;;;;7.93;7.10;;;;;;;10.75;83.84;101707.50;171964;28;1049;-67
2022/06/03 00:54:43;;;;;;;9.04;7.24;;;;;;;10.70;84.01;101698.91;171974;28;1225;-68
2022/06/03 00:55:06;;;;;;;9.59;7.10;;;;;;;10.72;84.43;101696.28;172003;28;1246;-68
2022/06/03 00:55:52;;;;;;;7.76;7.00;;;;;;;10.76;84.45;101703.09;171953;28;1230;-68
2022/06/03 00:56:19;;;;;;;8.09;6.97;;;;;;;10.77;83.88;101702.19;171976;28;1234;-69
2022/06/03 00:57:06;;;;;;;7.96;6.95;;;;;;;10.77;84.06;101694.38;171963;28;1223;-69
2022/06/03 00:58:01;;;;;;;7.71;7.10;;;;;;;10.73;83.88;101688.41;171992;28;2387;-69
2022/06/03 00:58:50;;;;;;;7.93;7.15;;;;;;;10.74;84.60;101697.09;171982;28;1223;-69
2022/06/03 00:59:38;;;;;;;8.10;7.28;;;;;;;10.73;83.95;101692.75;171966;28;1222;-69
2022/06/03 00:59:53;;;;;;;7.95;7.22;;;;;;;10.71;84.55;101687.56;171969;28;1212;-69
2022/06/03 01:00:21;;;;;;;7.79;7.09;;;;;;;10.71;84.45;101690.19;171946;28;1223;-69
2022/06/03 01:00:42;;;;;;;7.85;7.15;;;;;;;10.71;84.06;101691.97;171865;28;1318;-69
2022/06/03 01:01:15;;;;;;;8.05;7.34;;;;;;;10.63;85.13;101689.56;172014;28;1224;-68
2022/06/03 01:02:33;;;;;;;8.01;7.25;;;;;;;10.64;84.40;101684.28;172026;28;1229;-67
2022/06/03 01:02:57;;;;;;;9.10;7.10;;;;;;;10.66;85.12;101686.88;171216;28;1245;-69
2022/06/03 01:03:22;;;;;;;8.65;7.26;;;;;;;10.68;85.31;101692.91;171166;28;1232;-69
2022/06/03 01:03:56;;;;;;;7.94;7.20;;;;;;;10.66;84.67;101697.31;171217;28;1233;-69
2022/06/03 01:04:30;;;;;;;8.24;7.53;;;;;;;10.62;84.63;101685.25;171235;28;1236;-69
2022/06/03 01:05:15;;;;;;;7.85;7.13;;;;;;;10.61;84.81;101691.38;171214;28;1242;-69
2022/06/03 01:05:48;;;;;;;8.01;7.18;;;;;;;10.61;85.27;101691.38;172041;28;1237;-69
2022/06/03 01:06:59;;;;;;;8.11;7.16;;;;;;;10.60;85.21;101687.06;171936;28;1231;-69
2022/06/03 01:07:24;;;;;;;7.76;7.03;;;;;;;10.53;85.42;101695.06;170989;28;1536;-69
2022/06/03 01:07:41;;;;;;;7.79;7.06;;;;;;;10.55;85.01;101688.00;171118;28;1540;-69
2022/06/03 01:08:10;;;;;;;7.88;7.07;;;;;;;10.60;85.42;101689.66;171299;28;1220;-66
2022/06/03 01:08:36;;;;;;;7.93;7.20;;;;;;;10.63;85.07;101694.78;171103;28;1485;-69
2022/06/03 01:09:02;;;;;;;7.75;7.05;;;;;;;10.51;86.07;101689.00;171213;28;1237;-69
2022/06/03 01:09:26;;;;;;;7.75;7.06;;;;;;;10.51;85.61;101686.41;171056;28;1363;-69
2022/06/03 01:09:47;;;;;;;7.71;6.95;;;;;;;10.55;85.34;101682.78;171702;28;1296;-69
2022/06/03 01:10:13;;;;;;;7.97;7.03;;;;;;;10.58;85.58;101694.06;171925;28;1218;-69
2022/06/03 01:10:43;;;;;;;8.01;7.13;;;;;;;10.56;85.43;101692.38;171953;28;1263;-69
2022/06/03 01:11:27;;;;;;;7.82;7.10;;;;;;;10.63;85.26;101687.81;171952;28;1239;-69
2022/06/03 01:12:10;;;;;;;7.71;6.95;;;;;;;10.58;85.55;101681.00;171042;28;1500;-68
2022/06/03 01:13:04;;;;;;;7.64;6.94;;;;;;;10.55;86.33;101695.00;171899;28;1228;-69
2022/06/03 01:13:42;;;;;;;7.76;7.10;;;;;;;10.48;85.91;101686.50;171904;28;1229;-68
2022/06/03 01:14:26;;;;;;;8.16;7.15;;;;;;;10.56;85.64;101684.53;172568;28;1507;-69
2022/06/03 01:14:58;;;;;;;8.45;7.24;;;;;;;10.63;85.34;101681.72;171127;28;1501;-69
2022/06/03 01:16:14;;;;;;;7.75;7.05;;;;;;;10.67;85.34;101688.56;171905;28;1216;-69
2022/06/03 01:16:32;;;;;;;7.82;7.18;;;;;;;10.69;85.00;101681.56;171863;28;1313;-68
2022/06/03 01:17:11;;;;;;;7.63;6.97;;;;;;;10.71;84.22;101679.75;171849;28;1218;-69
2022/06/03 01:17:42;;;;;;;8.56;7.22;;;;;;;10.73;84.39;101677.94;171864;28;1460;-68
2022/06/03 01:18:00;;;;;;;7.90;7.19;;;;;;;10.75;84.43;101686.59;171878;28;1224;-68
2022/06/03 01:18:34;;;;;;;7.96;7.26;;;;;;;10.74;84.42;101682.25;171868;28;1215;-68
2022/06/03 01:19:24;;;;;;;7.72;7.03;;;;;;;10.69;85.15;101676.34;172001;28;1241;-68
2022/06/03 01:19:59;;;;;;;7.93;7.16;;;;;;;10.73;85.04;101679.69;171961;28;1218;-69
2022/06/03 01:20:34;;;;;;;8.06;7.26;;;;;;;10.76;84.85;101679.63;171972;28;1222;-68
2022/06/03 01:20:45;;;;;;;8.00;7.24;;;;;;;10.76;84.76;101677.88;171983;28;1217;-69
2022/06/03 01:21:21;;;;;;;8.01;7.22;;;;;;;10.77;84.79;101678.69;171994;28;1213;-68
2022/06/03 01:22:02;;;;;;;7.81;7.07;;;;;;;10.77;85.04;101676.97;171955;28;1227;-69
2022/06/03 01:22:41;;;;;;;7.81;7.14;;;;;;;10.73;85.09;101671.88;171971;28;1227;-68
2022/06/03 01:23:11;;;;;;;8.88;7.55;;;;;;;10.77;84.92;101674.34;171990;28;1222;-68
2022/06/03 01:24:11;;;;;;;9.51;7.29;;;;;;;10.79;84.24;101669.94;172067;28;1251;-69
2022/06/03 01:24:34;;;;;;;7.89;7.13;;;;;;;10.65;85.03;101669.50;171244;28;1465;-68
2022/06/03 01:25:17;;;;;;;7.86;7.13;;;;;;;10.65;85.09;101675.59;171317;28;1220;-68
2022/06/03 01:25:28;;;;;;;7.71;7.00;;;;;;;10.71;85.62;101673.69;171349;28;1237;-68
2022/06/03 01:26:19;;;;;;;7.60;6.90;;;;;;;10.73;84.66;101671.88;171298;28;1229;-68
2022/06/03 01:27:20;;;;;;;7.80;7.06;;;;;;;10.80;84.64;101671.66;170664;29;1367;-68
2022/06/03 01:27:53;;;;;;;7.82;6.97;;;;;;;10.82;84.26;101674.22;172657;28;1225;-68
2022/06/03 01:28:22;;;;;;;8.00;7.07;;;;;;;10.82;84.22;101669.84;172022;28;1230;-69
2022/06/03 01:28:33;;;;;;;7.88;7.18;;;;;;;10.81;85.23;101665.53;172089;28;1222;-68
2022/06/03 01:29:00;;;;;;;7.88;7.18;;;;;;;10.85;84.81;101670.66;172590;28;1864;-68
2022/06/03 01:29:42;;;;;;;7.91;7.19;;;;;;;10.79;85.17;101667.34;172717;28;1225;-68
2022/06/03 01:30:35;;;;;;;7.89;7.15;;;;;;;10.72;85.13;101668.41;172694;28;1215;-68
2022/06/03 01:31:12;;;;;;;7.65;6.99;;;;;;;10.83;84.78;101668.09;171334;28;1384;-68
2022/06/03 01:32:06;;;;;;;7.50;6.90;;;;;;;10.86;84.66;101667.13;172096;28;1233;-68
2022/06/03 01:32:30;;;;;;;7.69;6.99;;;;;;;10.87;84.94;101661.88;172046;28;1227;-68
2022/06/03 01:32:47;;;;;;;7.46;6.79;;;;;;;10.86;84.56;101661.91;172104;28;1222;-69
2022/06/03 01:33:15;;;;;;;7.79;7.09;;;;;;;10.82;85.72;101666.38;172156;28;1209;-68
2022/06/03 01:33:32;;;;;;;7.80;7.11;;;;;;;10.83;85.19;101662.88;172102;28;1212;-69
2022/06/03 01:34:08;;;;;;;7.94;7.15;;;;;;;10.87;84.88;101658.38;172096;28;1289;-69
2022/06/03 01:35:10;;;;;;;7.80;7.06;;;;;;;10.86;85.50;101661.91;171992;28;1239;-69
2022/06/03 01:35:42;;;;;;;8.14;7.21;;;;;;;10.86;84.79;101662.78;171319;28;1225;-68
2022/06/03 01:36:18;;;;;;;7.84;7.07;;;;;;;10.88;84.55;101654.91;171304;28;1221;-69
2022/06/03 01:36:37;;;;;;;7.61;6.91;;;;;;;10.87;85.27;101663.63;172147;28;1229;-68
2022/06/03 01:37:11;;;;;;;7.78;7.10;;;;;;;10.89;85.21;101661.81;172142;28;1222;-68
2022/06/03 01:37:34;;;;;;;7.74;7.09;;;;;;;10.82;85.02;101662.00;172097;28;1224;-68
2022/06/03 01:37:56;;;;;;;8.01;7.07;;;;;;;10.85;85.52;101662.81;172086;28;1229;-68
2022/06/03 01:38:17;;;;;;;7.96;7.22;;;;;;;10.88;84.96;101660.13;172128;28;1229;-68
2022/06/03 01:38:41;;;;;;;7.81;7.14;;;;;;;10.87;85.09;101658.38;172055;28;1220;-69
2022/06/03 01:39:10;;;;;;;8.14;7.34;;;;;;;10.88;84.88;101662.72;172580;28;1529;-68
2022/06/03 01:40:19;;;;;;;8.01;7.25;;;;;;;10.88;84.88;101660.97;171935;28;1929;-69
2022/06/03 01:40:53;;;;;;;7.71;7.01;;;;;;;10.88;85.17;101666.19;172050;28;1251;-69
2022/06/03 01:41:25;;;;;;;7.72;7.01;;;;;;;10.91;85.05;101662.63;172051;28;1222;-69
2022/06/03 01:41:55;;;;;;;7.84;7.10;;;;;;;10.91;85.54;101660.00;171947;28;1502;-69
2022/06/03 01:42:44;;;;;;;8.07;7.28;;;;;;;10.93;85.13;101660.81;171941;28;1495;-69
2022/06/03 01:43:13;;;;;;;7.97;7.21;;;;;;;10.94;85.16;101665.13;172015;28;1216;-69
2022/06/03 01:44:11;;;;;;;8.00;7.22;;;;;;;10.88;85.21;101653.13;171924;28;1485;-69
2022/06/03 01:44:34;;;;;;;8.14;7.34;;;;;;;10.86;85.86;101661.91;172024;28;1223;-68
2022/06/03 01:44:53;;;;;;;8.26;7.39;;;;;;;10.89;85.74;101659.22;171931;28;1207;-69
2022/06/03 01:45:20;;;;;;;8.36;7.40;;;;;;;10.88;86.18;101655.72;172034;28;1234;-68
2022/06/03 01:45:57;;;;;;;8.02;7.22;;;;;;;10.84;85.92;101650.69;172112;28;1225;-68
2022/06/03 01:46:30;;;;;;;7.75;7.03;;;;;;;10.86;85.67;101646.25;172062;28;1231;-69
2022/06/03 01:47:22;;;;;;;7.70;6.97;;;;;;;10.89;86.02;101651.38;172099;28;1211;-68
2022/06/03 01:47:50;;;;;;;7.68;6.96;;;;;;;10.86;85.72;101643.63;171327;28;1229;-69
2022/06/03 01:48:30;;;;;;;7.68;7.03;;;;;;;10.86;85.52;101652.34;171380;28;1212;-69
2022/06/03 01:48:57;;;;;;;8.10;7.13;;;;;;;10.85;85.50;101650.63;172535;28;1477;-68
2022/06/03 01:49:37;;;;;;;7.91;6.95;;;;;;;10.88;85.87;101652.28;172655;28;1217;-69
2022/06/03 01:50:23;;;;;;;7.64;6.89;;;;;;;10.85;85.65;101649.78;171883;28;1507;-68
2022/06/03 01:51:19;;;;;;;7.66;6.90;;;;;;;10.85;85.94;101655.00;172708;28;1254;-69
2022/06/03 01:51:58;;;;;;;7.80;7.06;;;;;;;10.87;85.39;101647.94;172056;28;2380;-68
2022/06/03 01:52:12;;;;;;;8.15;7.24;;;;;;;10.86;86.02;101646.25;172087;28;1218;-68
2022/06/03 01:52:53;;;;;;;7.91;7.09;;;;;;;10.87;85.91;101653.16;172042;28;1404;-68
2022/06/03 01:53:35;;;;;;;7.85;7.00;;;;;;;10.89;85.15;101648.78;172013;28;1229;-69
2022/06/03 01:54:23;;;;;;;7.53;6.80;;;;;;;10.87;85.63;101653.16;172068;28;1225;-69
2022/06/03 01:54:46;;;;;;;7.99;7.14;;;;;;;10.80;85.74;101653.38;172075;28;1238;-68
2022/06/03 01:55:15;;;;;;;7.94;7.03;;;;;;;10.82;85.49;101646.34;171828;28;1227;-69
2022/06/03 01:55:46;;;;;;;7.65;6.95;;;;;;;10.87;85.52;101647.94;171805;28;1239;-69
2022/06/03 01:56:34;;;;;;;7.59;6.93;;;;;;;10.69;86.38;101650.22;172056;28;1214;-68
2022/06/03 01:57:11;;;;;;;7.68;7.04;;;;;;;10.73;86.14;101646.63;172059;28;1232;-68
2022/06/03 01:57:41;;;;;;;8.02;7.26;;;;;;;10.76;85.75;101638.72;172096;28;1235;-68
2022/06/03 01:58:13;;;;;;;7.65;7.04;;;;;;;10.71;85.99;101647.56;172612;28;1558;-68
2022/06/03 01:59:04;;;;;;;7.72;7.06;;;;;;;10.79;86.47;101646.44;172713;28;1222;-69
2022/06/03 01:59:38;;;;;;;7.72;7.06;;;;;;;10.77;86.03;101648.25;171310;28;1224;-68
2022/06/03 01:59:50;;;;;;;7.76;7.06;;;;;;;10.79;86.26;101641.22;171944;28;1288;-68
2022/06/03 02:00:35;;;;;;;7.70;7.00;;;;;;;10.80;86.23;101642.94;172137;28;1221;-69
2022/06/03 02:01:32;;;;;;;7.68;6.97;;;;;;;10.80;85.92;101644.69;172110;28;1236;-68
2022/06/03 02:02:34;;;;;;;7.69;6.99;;;;;;;10.64;87.10;101646.91;172091;28;1239;-68
2022/06/03 02:03:21;;;;;;;7.40;6.84;;;;;;;10.62;87.46;101651.31;172065;28;1225;-68
2022/06/03 02:03:52;;;;;;;7.69;7.01;;;;;;;10.67;86.57;101646.78;172612;28;1482;-69
2022/06/03 02:04:21;;;;;;;7.71;7.00;;;;;;;10.71;86.90;101644.97;172726;28;1236;-68
2022/06/03 02:04:56;;;;;;;7.89;7.15;;;;;;;10.66;86.60;101650.31;172708;28;1217;-68
2022/06/03 02:05:21;;;;;;;8.09;7.35;;;;;;;10.69;86.72;101634.56;172680;28;1238;-69
2022/06/03 02:05:50;;;;;;;7.86;7.14;;;;;;;10.73;86.51;101649.25;172402;28;1202;-68
2022/06/03 02:06:31;;;;;;;8.15;7.24;;;;;;;10.74;85.77;101642.28;172097;28;1225;-68
2022/06/03 02:07:18;;;;;;;7.88;7.18;;;;;;;10.61;86.59;101642.63;172045;28;1215;-68
2022/06/03 02:08:11;;;;;;;7.91;7.18;;;;;;;10.72;86.31;101644.06;172074;28;1239;-69
2022/06/03 02:08:31;;;;;;;7.94;7.18;;;;;;;10.75;86.10;101644.84;171976;28;1400;-69
2022/06/03 02:09:09;;;;;;;8.11;7.40;;;;;;;10.70;85.72;101644.09;172073;28;1217;-68
2022/06/03 02:09:43;;;;;;;8.05;7.30;;;;;;;10.71;85.83;101634.53;172021;28;1209;-69
2022/06/03 02:10:22;;;;;;;8.27;7.51;;;;;;;10.65;86.56;101636.44;172089;28;1229;-69
2022/06/03 02:10:58;;;;;;;8.31;7.55;;;;;;;10.71;86.37;101637.97;172104;28;1221;-69
2022/06/03 02:11:18;;;;;;;8.06;7.34;;;;;;;10.70;86.31;101631.03;172046;28;1223;-68
2022/06/03 02:11:42;;;;;;;8.46;7.64;;;;;;;10.70;86.12;101631.03;172061;28;1201;-69
2022/06/03 02:11:56;;;;;;;8.32;7.55;;;;;;;10.72;85.69;101629.25;172000;28;1226;-68
2022/06/03 02:12:37;;;;;;;8.06;7.30;;;;;;;10.73;86.29;101630.97;172111;28;1204;-69
2022/06/03 02:13:04;;;;;;;8.05;7.24;;;;;;;10.60;86.96;101625.25;171244;28;1492;-69
2022/06/03 02:13:31;;;;;;;8.13;7.24;;;;;;;10.69;86.27;101624.13;172006;28;1230;-69
2022/06/03 02:13:54;;;;;;;7.97;7.19;;;;;;;10.63;86.22;101626.91;171989;28;1292;-69
2022/06/03 02:14:58;;;;;;;7.95;7.19;;;;;;;10.64;86.47;101626.03;172020;28;1219;-69
2022/06/03 02:15:41;;;;;;;8.04;7.31;;;;;;;10.68;86.32;101632.88;171864;28;1498;-69
2022/06/03 02:16:31;;;;;;;8.21;7.47;;;;;;;10.66;86.18;101622.47;172043;28;1227;-68
2022/06/03 02:16:57;;;;;;;8.09;7.40;;;;;;;10.68;86.47;101627.66;172083;28;1246;-68
2022/06/03 02:17:14;;;;;;;8.18;7.47;;;;;;;10.70;86.29;101623.22;172042;28;1241;-68
2022/06/03 02:18:23;;;;;;;8.30;7.51;;;;;;;10.58;86.85;101627.06;172074;28;1226;-68
2022/06/03 02:19:37;;;;;;;8.48;7.68;;;;;;;10.38;88.13;101635.44;171327;28;1237;-68
2022/06/03 02:20:34;;;;;;;8.50;7.64;;;;;;;10.53;86.95;101624.59;170550;29;1470;-68
2022/06/03 02:21:09;;;;;;;8.41;7.59;;;;;;;10.57;86.70;101630.56;168721;29;1223;-68
2022/06/03 02:22:06;;;;;;;8.20;7.46;;;;;;;10.50;87.47;101635.09;171259;28;1491;-68
2022/06/03 02:22:47;;;;;;;8.26;7.44;;;;;;;10.59;86.26;101633.13;170566;29;1241;-68
2022/06/03 02:23:26;;;;;;;8.49;7.50;;;;;;;10.61;86.06;101628.72;170660;29;1243;-68
2022/06/03 02:23:59;;;;;;;8.69;7.53;;;;;;;10.57;86.54;101630.56;171343;28;1255;-69
2022/06/03 02:24:24;;;;;;;8.94;7.25;;;;;;;10.54;86.92;101631.50;170527;29;1555;-68
2022/06/03 02:24:48;;;;;;;8.40;7.43;;;;;;;10.59;86.36;101633.13;172017;28;1221;-68
2022/06/03 02:26:04;;;;;;;8.69;7.53;;;;;;;10.62;86.55;101633.91;171466;28;1223;-68
2022/06/03 02:26:53;;;;;;;8.29;7.43;;;;;;;10.51;86.34;101636.81;171242;28;1238;-69
2022/06/03 02:27:58;;;;;;;8.26;7.25;;;;;;;10.57;86.34;101635.78;172035;28;1227;-69
2022/06/03 02:28:19;;;;;;;8.26;7.45;;;;;;;10.49;87.01;101632.53;172042;28;1219;-68
2022/06/03 02:28:50;;;;;;;8.40;7.50;;;;;;;10.56;86.64;101629.72;172045;28;1229;-68
2022/06/03 02:31:20;;;;;;;8.15;7.31;;;;;;;10.50;87.41;101642.09;172095;28;1172;-69
2022/06/03 02:32:08;;;;;;;8.49;7.54;;;;;;;10.46;87.42;101632.63;172045;28;1215;-69
2022/06/03 02:32:50;;;;;;;8.16;7.46;;;;;;;10.52;86.95;101633.31;171269;28;1237;-69
2022/06/03 02:33:36;;;;;;;8.23;7.44;;;;;;;10.53;86.56;101645.47;171289;28;1228;-68
2022/06/03 02:34:41;;;;;;;8.60;7.79;;;;;;;10.54;86.12;101634.13;171306;28;1209;-68
2022/06/03 02:35:08;;;;;;;8.64;7.81;;;;;;;10.53;86.70;101635.03;172650;28;1229;-69
2022/06/03 02:35:35;;;;;;;8.25;7.55;;;;;;;10.54;86.44;101630.66;172557;28;1241;-69
2022/06/03 02:36:06;;;;;;;8.45;7.69;;;;;;;10.48;87.20;101629.09;172619;28;1307;-68
2022/06/03 02:36:11;;;;;;;8.46;7.71;;;;;;;10.51;86.99;101626.38;171890;28;1501;-69
2022/06/03 02:37:30;;;;;;;8.50;7.80;;;;;;;10.50;87.18;101629.06;172013;28;927;-69
2022/06/03 02:37:54;;;;;;;8.69;7.79;;;;;;;10.38;87.03;101630.22;171983;28;1229;-68
2022/06/03 02:38:33;;;;;;;8.77;7.85;;;;;;;10.48;86.89;101626.50;171966;28;1317;-68
2022/06/03 02:39:00;;;;;;;8.41;7.65;;;;;;;10.48;87.06;101628.22;170579;29;1309;-69
2022/06/03 02:40:06;;;;;;;8.26;7.47;;;;;;;10.34;87.30;101623.38;170665;29;1208;-68
2022/06/03 02:40:42;;;;;;;8.39;7.63;;;;;;;10.41;87.00;101630.13;169950;29;1235;-68
2022/06/03 02:41:18;;;;;;;8.38;7.57;;;;;;;10.46;87.20;101623.06;172044;28;1215;-69
2022/06/03 02:42:09;;;;;;;8.23;7.43;;;;;;;10.43;86.93;101623.97;172045;28;1218;-68
2022/06/03 02:42:45;;;;;;;8.56;7.76;;;;;;;10.38;87.67;101622.41;172066;28;1229;-69
2022/06/03 02:43:14;;;;;;;8.70;7.91;;;;;;;10.40;86.94;101623.22;172074;28;1221;-68
2022/06/03 02:43:26;;;;;;;8.85;7.91;;;;;;;10.36;87.46;101621.56;172054;28;1221;-69
2022/06/03 02:44:30;;;;;;;8.64;7.78;;;;;;;10.34;87.59;101624.25;172074;28;1241;-68
2022/06/03 02:44:47;;;;;;;8.41;7.65;;;;;;;10.40;87.52;101628.44;172114;28;1222;-69
2022/06/03 02:45:33;;;;;;;8.81;7.95;;;;;;;10.41;87.09;101615.31;172053;28;1223;-69
2022/06/03 02:46:31;;;;;;;8.60;7.81;;;;;;;10.38;87.06;101619.78;172012;28;1239;-68
2022/06/03 02:47:07;;;;;;;8.75;7.95;;;;;;;10.42;86.79;101611.84;172091;28;1234;-68
2022/06/03 02:47:58;;;;;;;9.06;8.20;;;;;;;10.42;86.74;101617.06;172009;28;1225;-68
2022/06/03 02:48:54;;;;;;;8.66;7.86;;;;;;;10.43;86.83;101623.09;172099;28;1242;-69
2022/06/03 02:49:38;;;;;;;8.60;7.86;;;;;;;10.42;87.24;101617.06;172042;28;1223;-68
2022/06/03 02:50:13;;;;;;;9.01;8.21;;;;;;;10.38;87.34;101611.97;172021;28;1243;-68
2022/06/03 02:50:50;;;;;;;8.93;8.09;;;;;;;10.39;87.61;101616.25;172027;28;1216;-68
2022/06/03 02:51:33;;;;;;;9.27;8.38;;;;;;;10.40;86.62;101618.84;172040;28;1244;-68
2022/06/03 02:51:45;;;;;;;9.25;8.35;;;;;;;10.40;86.93;101613.63;171285;28;1224;-68
2022/06/03 02:52:24;;;;;;;9.16;8.34;;;;;;;10.38;87.22;101623.25;171316;28;1216;-68
2022/06/03 02:53:13;;;;;;;9.25;8.40;;;;;;;10.27;87.97;101618.34;171302;28;1214;-69